sensor_id;sensor_type;location;lat;lon;timestamp;P1;durP1;ratioP1;P2;durP2;ratioP2
4307;SDS011;2167;53.448;9.984;2023-07-28T00:01:25;5.20;;;3.00;;
4307;SDS011;2167;53.448;9.984;2023-07-28T00:03:51;2.53;;;2.33;;
4307;SDS011;2167;53.448;9.984;2023-07-28T00:06:17;2.43;;;2.23;;
4307;SDS011;2167;53.448;9.984;2023-07-28T00:08:43;4.03;;;2.67;;
4307;SDS011;2167;53.448;9.984;2023-07-28T00:11:10;2.03;;;1.83;;
4307;SDS011;2167;53.448;9.984;2023-07-28T00:13:37;2.20;;;2.00;;
4307;SDS011;2167;53.448;9.984;2023-07-28T00:16:03;3.43;;;2.07;;
4307;SDS011;2167;53.448;9.984;2023-07-28T00:18:29;2.10;;;1.90;;
4307;SDS011;2167;53.448;9.984;2023-07-28T00:20:55;2.20;;;1.77;;
4307;SDS011;2167;53.448;9.984;2023-07-28T00:23:21;2.63;;;2.43;;
4307;SDS011;2167;53.448;9.984;2023-07-28T00:25:47;2.33;;;2.07;;
4307;SDS011;2167;53.448;9.984;2023-07-28T00:28:13;3.10;;;2.80;;
4307;SDS011;2167;53.448;9.984;2023-07-28T00:30:39;3.13;;;2.50;;
4307;SDS011;2167;53.448;9.984;2023-07-28T00:33:05;3.10;;;2.07;;
4307;SDS011;2167;53.448;9.984;2023-07-28T00:35:31;3.13;;;2.43;;
4307;SDS011;2167;53.448;9.984;2023-07-28T00:37:58;2.83;;;2.23;;
4307;SDS011;2167;53.448;9.984;2023-07-28T00:40:23;3.10;;;2.20;;
4307;SDS011;2167;53.448;9.984;2023-07-28T00:42:50;3.23;;;1.97;;
4307;SDS011;2167;53.448;9.984;2023-07-28T00:45:16;2.33;;;2.13;;
4307;SDS011;2167;53.448;9.984;2023-07-28T00:47:42;2.03;;;1.83;;
4307;SDS011;2167;53.448;9.984;2023-07-28T00:50:08;1.70;;;1.53;;
4307;SDS011;2167;53.448;9.984;2023-07-28T00:52:35;2.10;;;1.90;;
4307;SDS011;2167;53.448;9.984;2023-07-28T00:55:01;2.67;;;2.40;;
4307;SDS011;2167;53.448;9.984;2023-07-28T00:57:27;3.40;;;2.20;;
4307;SDS011;2167;53.448;9.984;2023-07-28T00:59:53;2.37;;;1.97;;
4307;SDS011;2167;53.448;9.984;2023-07-28T01:02:19;3.97;;;2.40;;
4307;SDS011;2167;53.448;9.984;2023-07-28T01:04:46;3.00;;;2.17;;
4307;SDS011;2167;53.448;9.984;2023-07-28T01:07:14;3.03;;;2.13;;
4307;SDS011;2167;53.448;9.984;2023-07-28T01:10:05;2.10;;;1.80;;
4307;SDS011;2167;53.448;9.984;2023-07-28T01:12:28;2.03;;;1.87;;
4307;SDS011;2167;53.448;9.984;2023-07-28T01:14:54;3.13;;;2.13;;
4307;SDS011;2167;53.448;9.984;2023-07-28T01:17:20;2.43;;;1.60;;
4307;SDS011;2167;53.448;9.984;2023-07-28T01:19:48;5.27;;;1.97;;
4307;SDS011;2167;53.448;9.984;2023-07-28T01:27:41;3.03;;;2.27;;
4307;SDS011;2167;53.448;9.984;2023-07-28T01:30:08;2.10;;;1.97;;
4307;SDS011;2167;53.448;9.984;2023-07-28T01:32:35;3.57;;;2.20;;
4307;SDS011;2167;53.448;9.984;2023-07-28T01:35:02;4.37;;;2.93;;
4307;SDS011;2167;53.448;9.984;2023-07-28T01:37:28;3.30;;;2.07;;
4307;SDS011;2167;53.448;9.984;2023-07-28T01:39:54;2.43;;;2.23;;
4307;SDS011;2167;53.448;9.984;2023-07-28T01:42:20;3.23;;;2.40;;
4307;SDS011;2167;53.448;9.984;2023-07-28T01:44:46;2.20;;;2.00;;
4307;SDS011;2167;53.448;9.984;2023-07-28T01:47:12;2.70;;;2.37;;
4307;SDS011;2167;53.448;9.984;2023-07-28T01:49:38;3.80;;;2.50;;
4307;SDS011;2167;53.448;9.984;2023-07-28T01:52:04;3.50;;;2.60;;
4307;SDS011;2167;53.448;9.984;2023-07-28T01:54:30;3.63;;;2.40;;
4307;SDS011;2167;53.448;9.984;2023-07-28T01:56:56;2.30;;;2.07;;
4307;SDS011;2167;53.448;9.984;2023-07-28T01:59:22;3.13;;;2.60;;
4307;SDS011;2167;53.448;9.984;2023-07-28T02:01:48;3.10;;;2.20;;
4307;SDS011;2167;53.448;9.984;2023-07-28T02:04:14;2.97;;;1.93;;
4307;SDS011;2167;53.448;9.984;2023-07-28T02:06:40;2.67;;;1.67;;
4307;SDS011;2167;53.448;9.984;2023-07-28T02:09:06;4.23;;;2.50;;
4307;SDS011;2167;53.448;9.984;2023-07-28T02:11:33;3.90;;;2.20;;
4307;SDS011;2167;53.448;9.984;2023-07-28T02:13:59;2.27;;;1.93;;
4307;SDS011;2167;53.448;9.984;2023-07-28T02:16:25;1.70;;;1.60;;
4307;SDS011;2167;53.448;9.984;2023-07-28T02:18:53;2.07;;;1.70;;
4307;SDS011;2167;53.448;9.984;2023-07-28T02:21:19;1.90;;;1.63;;
4307;SDS011;2167;53.448;9.984;2023-07-28T02:23:45;1.60;;;1.50;;
4307;SDS011;2167;53.448;9.984;2023-07-28T02:26:11;3.07;;;2.10;;
4307;SDS011;2167;53.448;9.984;2023-07-28T02:28:37;1.70;;;1.43;;
4307;SDS011;2167;53.448;9.984;2023-07-28T02:31:02;1.80;;;1.60;;
4307;SDS011;2167;53.448;9.984;2023-07-28T02:33:28;1.70;;;1.60;;
4307;SDS011;2167;53.448;9.984;2023-07-28T02:35:55;2.13;;;1.57;;
4307;SDS011;2167;53.448;9.984;2023-07-28T02:38:21;2.30;;;1.60;;
4307;SDS011;2167;53.448;9.984;2023-07-28T02:40:47;1.63;;;1.50;;
4307;SDS011;2167;53.448;9.984;2023-07-28T02:43:13;2.60;;;1.90;;
4307;SDS011;2167;53.448;9.984;2023-07-28T02:45:39;2.03;;;1.50;;
4307;SDS011;2167;53.448;9.984;2023-07-28T02:48:05;2.40;;;1.87;;
4307;SDS011;2167;53.448;9.984;2023-07-28T02:50:31;2.30;;;1.50;;
4307;SDS011;2167;53.448;9.984;2023-07-28T02:52:57;3.00;;;2.03;;
4307;SDS011;2167;53.448;9.984;2023-07-28T02:55:23;2.90;;;2.03;;
4307;SDS011;2167;53.448;9.984;2023-07-28T02:57:49;3.23;;;1.73;;
4307;SDS011;2167;53.448;9.984;2023-07-28T03:00:15;2.10;;;1.60;;
4307;SDS011;2167;53.448;9.984;2023-07-28T03:02:41;3.70;;;2.20;;
4307;SDS011;2167;53.448;9.984;2023-07-28T03:05:07;4.50;;;2.53;;
4307;SDS011;2167;53.448;9.984;2023-07-28T03:07:33;5.87;;;1.93;;
4307;SDS011;2167;53.448;9.984;2023-07-28T03:09:59;4.60;;;2.90;;
4307;SDS011;2167;53.448;9.984;2023-07-28T03:12:25;4.07;;;2.00;;
4307;SDS011;2167;53.448;9.984;2023-07-28T03:14:51;2.83;;;1.80;;
4307;SDS011;2167;53.448;9.984;2023-07-28T03:17:17;2.17;;;1.80;;
4307;SDS011;2167;53.448;9.984;2023-07-28T03:19:43;2.27;;;1.70;;
4307;SDS011;2167;53.448;9.984;2023-07-28T03:22:09;2.83;;;1.90;;
4307;SDS011;2167;53.448;9.984;2023-07-28T03:24:35;1.50;;;1.10;;
4307;SDS011;2167;53.448;9.984;2023-07-28T03:27:01;2.30;;;1.67;;
4307;SDS011;2167;53.448;9.984;2023-07-28T03:29:27;2.00;;;1.80;;
4307;SDS011;2167;53.448;9.984;2023-07-28T03:31:53;2.00;;;1.43;;
4307;SDS011;2167;53.448;9.984;2023-07-28T03:34:19;2.23;;;1.50;;
4307;SDS011;2167;53.448;9.984;2023-07-28T03:36:45;2.50;;;1.90;;
4307;SDS011;2167;53.448;9.984;2023-07-28T03:39:11;3.07;;;1.57;;
4307;SDS011;2167;53.448;9.984;2023-07-28T03:41:37;1.83;;;1.70;;
4307;SDS011;2167;53.448;9.984;2023-07-28T03:44:03;3.60;;;2.47;;
4307;SDS011;2167;53.448;9.984;2023-07-28T03:46:29;2.50;;;1.60;;
4307;SDS011;2167;53.448;9.984;2023-07-28T03:48:54;2.40;;;1.57;;
4307;SDS011;2167;53.448;9.984;2023-07-28T03:51:22;1.40;;;1.27;;
4307;SDS011;2167;53.448;9.984;2023-07-28T03:53:48;1.90;;;1.50;;
4307;SDS011;2167;53.448;9.984;2023-07-28T03:56:15;1.93;;;1.57;;
4307;SDS011;2167;53.448;9.984;2023-07-28T03:58:40;2.10;;;1.43;;
4307;SDS011;2167;53.448;9.984;2023-07-28T04:01:06;1.73;;;1.47;;
4307;SDS011;2167;53.448;9.984;2023-07-28T04:03:34;1.57;;;1.40;;
4307;SDS011;2167;53.448;9.984;2023-07-28T04:06:04;1.80;;;1.40;;
4307;SDS011;2167;53.448;9.984;2023-07-28T04:08:31;2.90;;;1.60;;
4307;SDS011;2167;53.448;9.984;2023-07-28T04:10:57;1.43;;;1.33;;
4307;SDS011;2167;53.448;9.984;2023-07-28T04:13:23;1.60;;;1.50;;
4307;SDS011;2167;53.448;9.984;2023-07-28T04:15:49;2.30;;;2.07;;
4307;SDS011;2167;53.448;9.984;2023-07-28T04:18:15;1.70;;;1.50;;
4307;SDS011;2167;53.448;9.984;2023-07-28T04:20:43;3.23;;;2.50;;
4307;SDS011;2167;53.448;9.984;2023-07-28T04:23:09;3.27;;;2.53;;
4307;SDS011;2167;53.448;9.984;2023-07-28T04:25:35;1.87;;;1.77;;
4307;SDS011;2167;53.448;9.984;2023-07-28T04:28:01;2.40;;;2.20;;
4307;SDS011;2167;53.448;9.984;2023-07-28T04:30:27;2.47;;;2.07;;
4307;SDS011;2167;53.448;9.984;2023-07-28T04:32:53;1.93;;;1.73;;
4307;SDS011;2167;53.448;9.984;2023-07-28T04:35:18;2.97;;;2.47;;
4307;SDS011;2167;53.448;9.984;2023-07-28T04:37:44;5.77;;;3.50;;
4307;SDS011;2167;53.448;9.984;2023-07-28T04:40:11;4.07;;;3.00;;
4307;SDS011;2167;53.448;9.984;2023-07-28T04:42:37;2.93;;;2.73;;
4307;SDS011;2167;53.448;9.984;2023-07-28T04:45:03;3.00;;;2.30;;
4307;SDS011;2167;53.448;9.984;2023-07-28T04:47:29;3.40;;;2.30;;
4307;SDS011;2167;53.448;9.984;2023-07-28T04:49:55;4.87;;;3.07;;
4307;SDS011;2167;53.448;9.984;2023-07-28T04:52:21;4.23;;;2.70;;
4307;SDS011;2167;53.448;9.984;2023-07-28T04:54:47;4.13;;;2.70;;
4307;SDS011;2167;53.448;9.984;2023-07-28T04:57:13;2.80;;;2.30;;
4307;SDS011;2167;53.448;9.984;2023-07-28T04:59:39;4.20;;;2.90;;
4307;SDS011;2167;53.448;9.984;2023-07-28T05:02:05;3.43;;;2.43;;
4307;SDS011;2167;53.448;9.984;2023-07-28T05:04:31;5.00;;;3.00;;
4307;SDS011;2167;53.448;9.984;2023-07-28T05:06:57;3.33;;;2.43;;
4307;SDS011;2167;53.448;9.984;2023-07-28T05:09:24;2.83;;;2.37;;
4307;SDS011;2167;53.448;9.984;2023-07-28T05:11:49;4.00;;;3.17;;
4307;SDS011;2167;53.448;9.984;2023-07-28T05:14:15;4.20;;;2.80;;
4307;SDS011;2167;53.448;9.984;2023-07-28T05:16:41;4.10;;;3.00;;
4307;SDS011;2167;53.448;9.984;2023-07-28T05:19:08;4.33;;;3.07;;
4307;SDS011;2167;53.448;9.984;2023-07-28T05:21:33;4.43;;;2.90;;
4307;SDS011;2167;53.448;9.984;2023-07-28T05:24:00;3.03;;;2.73;;
4307;SDS011;2167;53.448;9.984;2023-07-28T05:26:26;3.80;;;2.63;;
4307;SDS011;2167;53.448;9.984;2023-07-28T05:28:51;4.20;;;2.63;;
4307;SDS011;2167;53.448;9.984;2023-07-28T05:31:17;4.40;;;3.33;;
4307;SDS011;2167;53.448;9.984;2023-07-28T05:33:45;3.20;;;2.53;;
4307;SDS011;2167;53.448;9.984;2023-07-28T05:36:10;4.00;;;3.70;;
4307;SDS011;2167;53.448;9.984;2023-07-28T05:38:36;3.40;;;3.10;;
4307;SDS011;2167;53.448;9.984;2023-07-28T05:41:03;3.43;;;3.00;;
4307;SDS011;2167;53.448;9.984;2023-07-28T05:43:29;2.20;;;2.00;;
4307;SDS011;2167;53.448;9.984;2023-07-28T05:45:57;2.33;;;2.13;;
4307;SDS011;2167;53.448;9.984;2023-07-28T05:48:23;3.20;;;2.37;;
4307;SDS011;2167;53.448;9.984;2023-07-28T05:50:49;3.23;;;2.50;;
4307;SDS011;2167;53.448;9.984;2023-07-28T05:53:16;3.00;;;2.57;;
4307;SDS011;2167;53.448;9.984;2023-07-28T05:55:42;3.10;;;2.53;;
4307;SDS011;2167;53.448;9.984;2023-07-28T05:58:08;3.33;;;2.73;;
4307;SDS011;2167;53.448;9.984;2023-07-28T06:00:34;3.97;;;2.97;;
4307;SDS011;2167;53.448;9.984;2023-07-28T06:03:00;5.40;;;3.20;;
4307;SDS011;2167;53.448;9.984;2023-07-28T06:05:26;3.40;;;3.07;;
4307;SDS011;2167;53.448;9.984;2023-07-28T06:07:52;3.27;;;2.77;;
4307;SDS011;2167;53.448;9.984;2023-07-28T06:10:18;4.57;;;2.60;;
4307;SDS011;2167;53.448;9.984;2023-07-28T06:12:44;2.60;;;2.30;;
4307;SDS011;2167;53.448;9.984;2023-07-28T06:15:10;3.30;;;2.83;;
4307;SDS011;2167;53.448;9.984;2023-07-28T06:17:36;5.70;;;2.53;;
4307;SDS011;2167;53.448;9.984;2023-07-28T06:20:02;3.23;;;2.90;;
4307;SDS011;2167;53.448;9.984;2023-07-28T06:22:28;4.50;;;3.80;;
4307;SDS011;2167;53.448;9.984;2023-07-28T06:24:54;7.20;;;3.83;;
4307;SDS011;2167;53.448;9.984;2023-07-28T06:27:20;6.07;;;4.63;;
4307;SDS011;2167;53.448;9.984;2023-07-28T06:29:46;5.50;;;4.00;;
4307;SDS011;2167;53.448;9.984;2023-07-28T06:32:12;5.10;;;4.30;;
4307;SDS011;2167;53.448;9.984;2023-07-28T06:34:38;4.27;;;3.87;;
4307;SDS011;2167;53.448;9.984;2023-07-28T06:37:04;5.30;;;4.80;;
4307;SDS011;2167;53.448;9.984;2023-07-28T06:39:30;4.93;;;3.87;;
4307;SDS011;2167;53.448;9.984;2023-07-28T06:41:56;5.33;;;4.47;;
4307;SDS011;2167;53.448;9.984;2023-07-28T06:44:22;6.00;;;4.43;;
4307;SDS011;2167;53.448;9.984;2023-07-28T06:46:48;6.20;;;4.43;;
4307;SDS011;2167;53.448;9.984;2023-07-28T06:49:14;8.63;;;4.60;;
4307;SDS011;2167;53.448;9.984;2023-07-28T06:51:40;9.10;;;6.20;;
4307;SDS011;2167;53.448;9.984;2023-07-28T06:54:06;11.00;;;5.93;;
4307;SDS011;2167;53.448;9.984;2023-07-28T06:56:37;6.67;;;5.77;;
4307;SDS011;2167;53.448;9.984;2023-07-28T06:59:03;8.53;;;5.70;;
4307;SDS011;2167;53.448;9.984;2023-07-28T07:01:29;7.97;;;5.80;;
4307;SDS011;2167;53.448;9.984;2023-07-28T07:03:55;8.97;;;5.30;;
4307;SDS011;2167;53.448;9.984;2023-07-28T07:06:21;10.57;;;6.33;;
4307;SDS011;2167;53.448;9.984;2023-07-28T07:08:47;8.80;;;6.27;;
4307;SDS011;2167;53.448;9.984;2023-07-28T07:11:13;6.43;;;5.03;;
4307;SDS011;2167;53.448;9.984;2023-07-28T07:13:40;9.70;;;4.80;;
4307;SDS011;2167;53.448;9.984;2023-07-28T07:16:13;7.17;;;4.60;;
4307;SDS011;2167;53.448;9.984;2023-07-28T07:18:40;8.60;;;5.27;;
4307;SDS011;2167;53.448;9.984;2023-07-28T07:21:06;6.80;;;4.77;;
4307;SDS011;2167;53.448;9.984;2023-07-28T07:23:32;9.53;;;6.07;;
4307;SDS011;2167;53.448;9.984;2023-07-28T07:25:58;7.30;;;5.10;;
4307;SDS011;2167;53.448;9.984;2023-07-28T07:28:24;8.60;;;4.50;;
4307;SDS011;2167;53.448;9.984;2023-07-28T07:30:50;5.80;;;4.13;;
4307;SDS011;2167;53.448;9.984;2023-07-28T07:33:15;7.20;;;5.20;;
4307;SDS011;2167;53.448;9.984;2023-07-28T07:35:41;4.70;;;4.20;;
4307;SDS011;2167;53.448;9.984;2023-07-28T07:38:15;6.53;;;3.73;;
4307;SDS011;2167;53.448;9.984;2023-07-28T07:40:41;4.93;;;3.10;;
4307;SDS011;2167;53.448;9.984;2023-07-28T07:43:07;6.53;;;4.00;;
4307;SDS011;2167;53.448;9.984;2023-07-28T07:45:33;4.37;;;3.53;;
4307;SDS011;2167;53.448;9.984;2023-07-28T07:47:59;5.40;;;3.70;;
4307;SDS011;2167;53.448;9.984;2023-07-28T07:50:25;6.10;;;3.50;;
4307;SDS011;2167;53.448;9.984;2023-07-28T07:52:51;3.10;;;2.80;;
4307;SDS011;2167;53.448;9.984;2023-07-28T07:55:17;5.00;;;3.30;;
4307;SDS011;2167;53.448;9.984;2023-07-28T07:57:43;4.70;;;3.90;;
4307;SDS011;2167;53.448;9.984;2023-07-28T08:00:09;3.00;;;2.70;;
4307;SDS011;2167;53.448;9.984;2023-07-28T08:02:37;3.57;;;3.00;;
4307;SDS011;2167;53.448;9.984;2023-07-28T08:05:03;4.50;;;3.43;;
4307;SDS011;2167;53.448;9.984;2023-07-28T08:07:29;4.53;;;3.30;;
4307;SDS011;2167;53.448;9.984;2023-07-28T08:09:55;4.90;;;3.27;;
4307;SDS011;2167;53.448;9.984;2023-07-28T08:12:21;5.40;;;3.07;;
4307;SDS011;2167;53.448;9.984;2023-07-28T08:14:47;9.43;;;3.00;;
4307;SDS011;2167;53.448;9.984;2023-07-28T08:17:14;3.43;;;3.13;;
4307;SDS011;2167;53.448;9.984;2023-07-28T08:19:40;3.20;;;2.90;;
4307;SDS011;2167;53.448;9.984;2023-07-28T08:22:06;3.23;;;2.83;;
4307;SDS011;2167;53.448;9.984;2023-07-28T08:24:32;3.90;;;3.30;;
4307;SDS011;2167;53.448;9.984;2023-07-28T08:26:58;4.33;;;3.50;;
4307;SDS011;2167;53.448;9.984;2023-07-28T08:29:24;4.70;;;3.83;;
4307;SDS011;2167;53.448;9.984;2023-07-28T08:31:50;5.77;;;3.93;;
4307;SDS011;2167;53.448;9.984;2023-07-28T08:34:16;5.87;;;4.13;;
4307;SDS011;2167;53.448;9.984;2023-07-28T08:36:42;4.80;;;3.70;;
4307;SDS011;2167;53.448;9.984;2023-07-28T08:39:08;7.10;;;4.00;;
4307;SDS011;2167;53.448;9.984;2023-07-28T08:41:35;5.93;;;4.10;;
4307;SDS011;2167;53.448;9.984;2023-07-28T08:44:02;5.70;;;4.10;;
4307;SDS011;2167;53.448;9.984;2023-07-28T08:46:28;7.30;;;4.13;;
4307;SDS011;2167;53.448;9.984;2023-07-28T08:48:54;6.57;;;4.53;;
4307;SDS011;2167;53.448;9.984;2023-07-28T08:51:22;7.03;;;4.77;;
4307;SDS011;2167;53.448;9.984;2023-07-28T08:53:48;5.10;;;4.60;;
4307;SDS011;2167;53.448;9.984;2023-07-28T08:56:15;6.33;;;4.90;;
4307;SDS011;2167;53.448;9.984;2023-07-28T08:58:40;7.63;;;3.67;;
4307;SDS011;2167;53.448;9.984;2023-07-28T09:01:06;7.10;;;4.80;;
4307;SDS011;2167;53.448;9.984;2023-07-28T09:03:32;8.13;;;4.43;;
4307;SDS011;2167;53.448;9.984;2023-07-28T09:06:08;4.67;;;4.07;;
4307;SDS011;2167;53.448;9.984;2023-07-28T09:08:34;5.00;;;4.10;;
4307;SDS011;2167;53.448;9.984;2023-07-28T09:11:04;5.03;;;3.80;;
4307;SDS011;2167;53.448;9.984;2023-07-28T09:13:35;4.80;;;4.30;;
4307;SDS011;2167;53.448;9.984;2023-07-28T09:16:01;5.20;;;4.40;;
4307;SDS011;2167;53.448;9.984;2023-07-28T09:18:27;4.93;;;3.83;;
4307;SDS011;2167;53.448;9.984;2023-07-28T09:20:55;6.70;;;4.20;;
4307;SDS011;2167;53.448;9.984;2023-07-28T09:23:29;4.40;;;4.00;;
4307;SDS011;2167;53.448;9.984;2023-07-28T09:25:58;5.67;;;4.00;;
4307;SDS011;2167;53.448;9.984;2023-07-28T09:28:36;6.27;;;4.30;;
4307;SDS011;2167;53.448;9.984;2023-07-28T09:31:03;5.53;;;4.20;;
4307;SDS011;2167;53.448;9.984;2023-07-28T09:33:30;4.33;;;3.80;;
4307;SDS011;2167;53.448;9.984;2023-07-28T09:35:56;6.17;;;3.70;;
4307;SDS011;2167;53.448;9.984;2023-07-28T09:38:22;4.53;;;4.07;;
4307;SDS011;2167;53.448;9.984;2023-07-28T09:40:50;5.43;;;4.50;;
4307;SDS011;2167;53.448;9.984;2023-07-28T09:43:16;7.83;;;4.57;;
4307;SDS011;2167;53.448;9.984;2023-07-28T09:45:48;4.20;;;3.67;;
4307;SDS011;2167;53.448;9.984;2023-07-28T09:48:14;4.47;;;4.07;;
4307;SDS011;2167;53.448;9.984;2023-07-28T09:50:41;3.77;;;3.47;;
4307;SDS011;2167;53.448;9.984;2023-07-28T09:53:08;6.07;;;3.67;;
4307;SDS011;2167;53.448;9.984;2023-07-28T09:55:35;5.07;;;4.60;;
4307;SDS011;2167;53.448;9.984;2023-07-28T09:58:05;5.17;;;4.03;;
4307;SDS011;2167;53.448;9.984;2023-07-28T10:00:31;4.43;;;3.73;;
4307;SDS011;2167;53.448;9.984;2023-07-28T10:02:58;3.90;;;3.43;;
4307;SDS011;2167;53.448;9.984;2023-07-28T10:05:25;4.00;;;3.60;;
4307;SDS011;2167;53.448;9.984;2023-07-28T10:07:52;4.03;;;3.73;;
4307;SDS011;2167;53.448;9.984;2023-07-28T10:10:18;4.50;;;3.37;;
4307;SDS011;2167;53.448;9.984;2023-07-28T10:12:48;3.73;;;3.33;;
4307;SDS011;2167;53.448;9.984;2023-07-28T10:15:18;2.90;;;2.63;;
4307;SDS011;2167;53.448;9.984;2023-07-28T10:17:46;2.70;;;2.37;;
4307;SDS011;2167;53.448;9.984;2023-07-28T10:23:14;1.90;;;1.70;;
4307;SDS011;2167;53.448;9.984;2023-07-28T10:25:40;2.40;;;1.87;;
4307;SDS011;2167;53.448;9.984;2023-07-28T10:28:07;2.83;;;2.00;;
4307;SDS011;2167;53.448;9.984;2023-07-28T10:30:51;2.47;;;1.47;;
4307;SDS011;2167;53.448;9.984;2023-07-28T10:36:11;4.20;;;3.13;;
4307;SDS011;2167;53.448;9.984;2023-07-28T10:38:37;5.33;;;3.47;;
4307;SDS011;2167;53.448;9.984;2023-07-28T10:41:14;4.13;;;3.43;;
4307;SDS011;2167;53.448;9.984;2023-07-28T10:43:41;6.13;;;5.00;;
4307;SDS011;2167;53.448;9.984;2023-07-28T10:46:08;7.33;;;5.00;;
4307;SDS011;2167;53.448;9.984;2023-07-28T10:48:35;4.83;;;4.27;;
4307;SDS011;2167;53.448;9.984;2023-07-28T10:51:02;3.60;;;3.30;;
4307;SDS011;2167;53.448;9.984;2023-07-28T10:53:28;3.63;;;2.33;;
4307;SDS011;2167;53.448;9.984;2023-07-28T10:55:54;3.93;;;2.93;;
4307;SDS011;2167;53.448;9.984;2023-07-28T10:58:20;3.67;;;2.60;;
4307;SDS011;2167;53.448;9.984;2023-07-28T11:00:46;2.13;;;1.90;;
4307;SDS011;2167;53.448;9.984;2023-07-28T11:03:12;3.07;;;2.80;;
4307;SDS011;2167;53.448;9.984;2023-07-28T11:05:38;3.47;;;2.27;;
4307;SDS011;2167;53.448;9.984;2023-07-28T11:08:05;2.67;;;2.47;;
4307;SDS011;2167;53.448;9.984;2023-07-28T11:10:32;4.63;;;3.70;;
4307;SDS011;2167;53.448;9.984;2023-07-28T11:13:00;5.63;;;2.80;;
4307;SDS011;2167;53.448;9.984;2023-07-28T11:15:26;2.13;;;1.93;;
4307;SDS011;2167;53.448;9.984;2023-07-28T11:17:53;2.17;;;2.03;;
4307;SDS011;2167;53.448;9.984;2023-07-28T11:20:19;2.33;;;2.13;;
4307;SDS011;2167;53.448;9.984;2023-07-28T11:22:47;2.83;;;2.17;;
4307;SDS011;2167;53.448;9.984;2023-07-28T11:25:17;2.00;;;1.90;;
4307;SDS011;2167;53.448;9.984;2023-07-28T11:27:44;2.90;;;2.23;;
4307;SDS011;2167;53.448;9.984;2023-07-28T11:30:16;2.43;;;2.20;;
4307;SDS011;2167;53.448;9.984;2023-07-28T11:32:44;1.80;;;1.70;;
4307;SDS011;2167;53.448;9.984;2023-07-28T11:35:11;4.17;;;2.10;;
4307;SDS011;2167;53.448;9.984;2023-07-28T11:37:37;2.33;;;2.13;;
4307;SDS011;2167;53.448;9.984;2023-07-28T11:40:04;2.00;;;1.90;;
4307;SDS011;2167;53.448;9.984;2023-07-28T11:42:37;3.97;;;2.63;;
4307;SDS011;2167;53.448;9.984;2023-07-28T11:45:03;3.20;;;2.90;;
4307;SDS011;2167;53.448;9.984;2023-07-28T11:47:30;3.30;;;3.07;;
4307;SDS011;2167;53.448;9.984;2023-07-28T11:49:56;7.83;;;3.30;;
4307;SDS011;2167;53.448;9.984;2023-07-28T11:54:58;2.73;;;2.37;;
4307;SDS011;2167;53.448;9.984;2023-07-28T11:57:24;2.87;;;2.20;;
4307;SDS011;2167;53.448;9.984;2023-07-28T11:59:50;2.23;;;2.03;;
4307;SDS011;2167;53.448;9.984;2023-07-28T12:02:23;1.73;;;1.60;;
4307;SDS011;2167;53.448;9.984;2023-07-28T12:04:50;1.80;;;1.70;;
4307;SDS011;2167;53.448;9.984;2023-07-28T12:07:18;3.23;;;1.77;;
4307;SDS011;2167;53.448;9.984;2023-07-28T12:12:25;2.93;;;1.53;;
4307;SDS011;2167;53.448;9.984;2023-07-28T12:14:51;3.20;;;1.30;;
4307;SDS011;2167;53.448;9.984;2023-07-28T12:17:18;2.10;;;1.90;;
4307;SDS011;2167;53.448;9.984;2023-07-28T12:20:00;2.90;;;1.97;;
4307;SDS011;2167;53.448;9.984;2023-07-28T12:22:32;1.70;;;1.53;;
4307;SDS011;2167;53.448;9.984;2023-07-28T12:24:58;1.70;;;1.50;;
4307;SDS011;2167;53.448;9.984;2023-07-28T12:27:24;1.67;;;1.57;;
4307;SDS011;2167;53.448;9.984;2023-07-28T12:29:51;3.67;;;1.70;;
4307;SDS011;2167;53.448;9.984;2023-07-28T12:32:18;1.37;;;1.27;;
4307;SDS011;2167;53.448;9.984;2023-07-28T12:34:44;1.27;;;1.17;;
4307;SDS011;2167;53.448;9.984;2023-07-28T12:37:10;1.47;;;1.33;;
4307;SDS011;2167;53.448;9.984;2023-07-28T12:39:36;2.00;;;1.80;;
4307;SDS011;2167;53.448;9.984;2023-07-28T12:42:06;1.63;;;1.33;;
4307;SDS011;2167;53.448;9.984;2023-07-28T12:44:32;1.60;;;1.50;;
4307;SDS011;2167;53.448;9.984;2023-07-28T12:46:58;1.57;;;1.47;;
4307;SDS011;2167;53.448;9.984;2023-07-28T12:49:24;1.37;;;1.27;;
4307;SDS011;2167;53.448;9.984;2023-07-28T12:51:50;1.40;;;1.30;;
4307;SDS011;2167;53.448;9.984;2023-07-28T12:54:16;1.87;;;1.77;;
4307;SDS011;2167;53.448;9.984;2023-07-28T12:56:42;1.73;;;1.53;;
4307;SDS011;2167;53.448;9.984;2023-07-28T12:59:08;1.40;;;1.30;;
4307;SDS011;2167;53.448;9.984;2023-07-28T13:01:36;1.60;;;1.50;;
4307;SDS011;2167;53.448;9.984;2023-07-28T13:04:02;1.83;;;1.63;;
4307;SDS011;2167;53.448;9.984;2023-07-28T13:06:28;1.50;;;1.40;;
4307;SDS011;2167;53.448;9.984;2023-07-28T13:08:55;1.80;;;1.70;;
4307;SDS011;2167;53.448;9.984;2023-07-28T13:11:21;1.40;;;1.30;;
4307;SDS011;2167;53.448;9.984;2023-07-28T13:13:47;2.87;;;2.10;;
4307;SDS011;2167;53.448;9.984;2023-07-28T13:16:13;2.13;;;1.93;;
4307;SDS011;2167;53.448;9.984;2023-07-28T13:18:39;4.27;;;1.57;;
4307;SDS011;2167;53.448;9.984;2023-07-28T13:21:05;2.20;;;1.80;;
4307;SDS011;2167;53.448;9.984;2023-07-28T13:23:32;1.47;;;1.20;;
4307;SDS011;2167;53.448;9.984;2023-07-28T13:25:58;3.23;;;1.80;;
4307;SDS011;2167;53.448;9.984;2023-07-28T13:28:24;1.87;;;1.70;;
4307;SDS011;2167;53.448;9.984;2023-07-28T13:30:50;2.00;;;1.80;;
4307;SDS011;2167;53.448;9.984;2023-07-28T13:33:16;2.80;;;2.23;;
4307;SDS011;2167;53.448;9.984;2023-07-28T13:35:42;3.17;;;2.63;;
4307;SDS011;2167;53.448;9.984;2023-07-28T13:38:08;2.70;;;2.50;;
4307;SDS011;2167;53.448;9.984;2023-07-28T13:40:35;2.67;;;2.10;;
4307;SDS011;2167;53.448;9.984;2023-07-28T13:43:01;2.77;;;2.50;;
4307;SDS011;2167;53.448;9.984;2023-07-28T13:45:27;2.77;;;2.40;;
4307;SDS011;2167;53.448;9.984;2023-07-28T13:47:53;2.33;;;2.13;;
4307;SDS011;2167;53.448;9.984;2023-07-28T13:50:19;2.50;;;2.00;;
4307;SDS011;2167;53.448;9.984;2023-07-28T13:52:45;2.20;;;2.00;;
4307;SDS011;2167;53.448;9.984;2023-07-28T13:55:11;2.50;;;1.83;;
4307;SDS011;2167;53.448;9.984;2023-07-28T13:57:37;1.77;;;1.67;;
4307;SDS011;2167;53.448;9.984;2023-07-28T14:00:04;2.97;;;1.70;;
4307;SDS011;2167;53.448;9.984;2023-07-28T14:02:34;2.53;;;1.97;;
4307;SDS011;2167;53.448;9.984;2023-07-28T14:05:00;2.00;;;1.80;;
4307;SDS011;2167;53.448;9.984;2023-07-28T14:07:26;2.70;;;2.07;;
4307;SDS011;2167;53.448;9.984;2023-07-28T14:09:52;2.33;;;1.90;;
4307;SDS011;2167;53.448;9.984;2023-07-28T14:12:18;2.93;;;2.50;;
4307;SDS011;2167;53.448;9.984;2023-07-28T14:14:47;2.33;;;2.13;;
4307;SDS011;2167;53.448;9.984;2023-07-28T14:17:14;1.77;;;1.57;;
4307;SDS011;2167;53.448;9.984;2023-07-28T14:19:41;1.50;;;1.33;;
4307;SDS011;2167;53.448;9.984;2023-07-28T14:22:07;3.80;;;1.60;;
4307;SDS011;2167;53.448;9.984;2023-07-28T14:24:33;2.17;;;1.60;;
4307;SDS011;2167;53.448;9.984;2023-07-28T14:26:59;1.77;;;1.63;;
4307;SDS011;2167;53.448;9.984;2023-07-28T14:29:25;1.87;;;1.47;;
4307;SDS011;2167;53.448;9.984;2023-07-28T14:31:51;1.80;;;1.70;;
4307;SDS011;2167;53.448;9.984;2023-07-28T14:34:17;1.80;;;1.70;;
4307;SDS011;2167;53.448;9.984;2023-07-28T14:36:43;1.60;;;1.50;;
4307;SDS011;2167;53.448;9.984;2023-07-28T14:39:09;1.73;;;1.53;;
4307;SDS011;2167;53.448;9.984;2023-07-28T14:41:36;1.60;;;1.50;;
4307;SDS011;2167;53.448;9.984;2023-07-28T14:44:02;1.57;;;1.40;;
4307;SDS011;2167;53.448;9.984;2023-07-28T14:46:28;1.40;;;1.30;;
4307;SDS011;2167;53.448;9.984;2023-07-28T14:48:54;2.60;;;2.10;;
4307;SDS011;2167;53.448;9.984;2023-07-28T14:51:21;1.40;;;1.30;;
4307;SDS011;2167;53.448;9.984;2023-07-28T14:53:47;1.87;;;1.50;;
4307;SDS011;2167;53.448;9.984;2023-07-28T14:56:14;1.63;;;1.53;;
4307;SDS011;2167;53.448;9.984;2023-07-28T14:58:40;2.00;;;1.80;;
4307;SDS011;2167;53.448;9.984;2023-07-28T15:01:07;1.70;;;1.60;;
4307;SDS011;2167;53.448;9.984;2023-07-28T15:03:33;1.50;;;1.40;;
4307;SDS011;2167;53.448;9.984;2023-07-28T15:06:02;1.90;;;1.80;;
4307;SDS011;2167;53.448;9.984;2023-07-28T15:08:28;1.33;;;1.17;;
4307;SDS011;2167;53.448;9.984;2023-07-28T15:10:54;1.20;;;1.13;;
4307;SDS011;2167;53.448;9.984;2023-07-28T15:13:20;2.60;;;1.77;;
4307;SDS011;2167;53.448;9.984;2023-07-28T15:15:46;1.83;;;1.03;;
4307;SDS011;2167;53.448;9.984;2023-07-28T15:18:12;2.10;;;1.27;;
4307;SDS011;2167;53.448;9.984;2023-07-28T15:20:39;1.50;;;1.23;;
4307;SDS011;2167;53.448;9.984;2023-07-28T15:23:05;1.30;;;1.17;;
4307;SDS011;2167;53.448;9.984;2023-07-28T15:25:31;1.77;;;1.57;;
4307;SDS011;2167;53.448;9.984;2023-07-28T15:27:57;1.27;;;1.17;;